sensor_id;sensor_type;location;lat;lon;timestamp;P1;durP1;ratioP1;P2;durP2;ratioP2
46835;SDS011;32573;51.290;6.926;2024-03-08T00:00:21;6.80;;;3.38;;
46835;SDS011;32573;51.290;6.926;2024-03-08T00:02:50;7.47;;;3.88;;
46835;SDS011;32573;51.290;6.926;2024-03-08T00:05:19;6.40;;;3.20;;
46835;SDS011;32573;51.290;6.926;2024-03-08T00:07:48;6.60;;;3.60;;
46835;SDS011;32573;51.290;6.926;2024-03-08T00:10:17;6.63;;;3.50;;
46835;SDS011;32573;51.290;6.926;2024-03-08T00:12:48;6.40;;;3.35;;
46835;SDS011;32573;51.290;6.926;2024-03-08T00:15:18;6.18;;;3.50;;
46835;SDS011;32573;51.290;6.926;2024-03-08T00:17:47;6.13;;;3.08;;
46835;SDS011;32573;51.290;6.926;2024-03-08T00:20:17;7.45;;;3.47;;
46835;SDS011;32573;51.290;6.926;2024-03-08T00:22:46;7.00;;;3.63;;
46835;SDS011;32573;51.290;6.926;2024-03-08T00:25:15;6.72;;;3.40;;
46835;SDS011;32573;51.290;6.926;2024-03-08T00:27:43;7.13;;;3.55;;
46835;SDS011;32573;51.290;6.926;2024-03-08T00:30:12;6.88;;;3.50;;
46835;SDS011;32573;51.290;6.926;2024-03-08T00:32:41;6.65;;;3.70;;
46835;SDS011;32573;51.290;6.926;2024-03-08T00:35:10;7.13;;;4.03;;
46835;SDS011;32573;51.290;6.926;2024-03-08T00:37:41;7.43;;;3.67;;
46835;SDS011;32573;51.290;6.926;2024-03-08T00:40:10;7.95;;;3.35;;
46835;SDS011;32573;51.290;6.926;2024-03-08T00:42:39;7.20;;;3.50;;
46835;SDS011;32573;51.290;6.926;2024-03-08T00:45:08;6.90;;;3.58;;
46835;SDS011;32573;51.290;6.926;2024-03-08T00:47:38;6.45;;;3.40;;
46835;SDS011;32573;51.290;6.926;2024-03-08T00:50:09;6.95;;;3.50;;
46835;SDS011;32573;51.290;6.926;2024-03-08T00:52:39;7.32;;;3.50;;
46835;SDS011;32573;51.290;6.926;2024-03-08T00:55:09;7.40;;;3.45;;
46835;SDS011;32573;51.290;6.926;2024-03-08T00:57:38;6.72;;;3.75;;
46835;SDS011;32573;51.290;6.926;2024-03-08T01:00:07;7.18;;;3.85;;
46835;SDS011;32573;51.290;6.926;2024-03-08T01:02:40;6.28;;;3.60;;
46835;SDS011;32573;51.290;6.926;2024-03-08T01:05:09;7.10;;;3.55;;
46835;SDS011;32573;51.290;6.926;2024-03-08T01:07:37;7.78;;;3.78;;
46835;SDS011;32573;51.290;6.926;2024-03-08T01:10:06;7.70;;;3.67;;
46835;SDS011;32573;51.290;6.926;2024-03-08T01:12:38;7.25;;;3.70;;
46835;SDS011;32573;51.290;6.926;2024-03-08T01:15:07;7.97;;;3.70;;
46835;SDS011;32573;51.290;6.926;2024-03-08T01:17:37;6.57;;;3.70;;
46835;SDS011;32573;51.290;6.926;2024-03-08T01:20:06;7.30;;;3.40;;
46835;SDS011;32573;51.290;6.926;2024-03-08T01:22:37;10.77;;;5.95;;
46835;SDS011;32573;51.290;6.926;2024-03-08T01:25:06;7.78;;;3.72;;
46835;SDS011;32573;51.290;6.926;2024-03-08T01:27:35;7.03;;;3.53;;
46835;SDS011;32573;51.290;6.926;2024-03-08T01:30:06;7.35;;;3.65;;
46835;SDS011;32573;51.290;6.926;2024-03-08T01:32:36;7.63;;;3.72;;
46835;SDS011;32573;51.290;6.926;2024-03-08T01:35:05;8.80;;;3.80;;
46835;SDS011;32573;51.290;6.926;2024-03-08T01:37:36;7.22;;;3.80;;
46835;SDS011;32573;51.290;6.926;2024-03-08T01:40:05;6.78;;;3.78;;
46835;SDS011;32573;51.290;6.926;2024-03-08T01:42:35;7.97;;;3.65;;
46835;SDS011;32573;51.290;6.926;2024-03-08T01:45:06;8.48;;;4.20;;
46835;SDS011;32573;51.290;6.926;2024-03-08T01:47:35;8.43;;;3.53;;
46835;SDS011;32573;51.290;6.926;2024-03-08T01:50:04;6.80;;;3.58;;
46835;SDS011;32573;51.290;6.926;2024-03-08T01:52:34;7.28;;;3.80;;
46835;SDS011;32573;51.290;6.926;2024-03-08T01:55:04;7.15;;;3.80;;
46835;SDS011;32573;51.290;6.926;2024-03-08T01:57:34;6.82;;;3.50;;
46835;SDS011;32573;51.290;6.926;2024-03-08T02:00:06;8.23;;;3.80;;
46835;SDS011;32573;51.290;6.926;2024-03-08T02:02:39;6.80;;;3.63;;
46835;SDS011;32573;51.290;6.926;2024-03-08T02:05:11;7.45;;;4.00;;
46835;SDS011;32573;51.290;6.926;2024-03-08T02:07:40;7.03;;;3.70;;
46835;SDS011;32573;51.290;6.926;2024-03-08T02:10:10;6.78;;;3.60;;
46835;SDS011;32573;51.290;6.926;2024-03-08T02:12:39;9.13;;;4.00;;
46835;SDS011;32573;51.290;6.926;2024-03-08T02:15:09;7.55;;;3.70;;
46835;SDS011;32573;51.290;6.926;2024-03-08T02:17:38;7.78;;;3.90;;
46835;SDS011;32573;51.290;6.926;2024-03-08T02:20:07;7.78;;;3.75;;
46835;SDS011;32573;51.290;6.926;2024-03-08T02:22:41;7.32;;;4.03;;
46835;SDS011;32573;51.290;6.926;2024-03-08T02:25:10;6.60;;;3.95;;
46835;SDS011;32573;51.290;6.926;2024-03-08T02:27:39;7.75;;;3.70;;
46835;SDS011;32573;51.290;6.926;2024-03-08T02:30:08;7.50;;;3.97;;
46835;SDS011;32573;51.290;6.926;2024-03-08T02:32:39;7.82;;;4.30;;
46835;SDS011;32573;51.290;6.926;2024-03-08T02:35:08;7.28;;;3.65;;
46835;SDS011;32573;51.290;6.926;2024-03-08T02:37:37;9.55;;;4.75;;
46835;SDS011;32573;51.290;6.926;2024-03-08T02:40:07;8.40;;;3.90;;
46835;SDS011;32573;51.290;6.926;2024-03-08T02:42:37;7.05;;;3.55;;
46835;SDS011;32573;51.290;6.926;2024-03-08T02:45:05;9.05;;;4.20;;
46835;SDS011;32573;51.290;6.926;2024-03-08T02:47:36;8.40;;;3.80;;
46835;SDS011;32573;51.290;6.926;2024-03-08T02:50:05;7.30;;;3.58;;
46835;SDS011;32573;51.290;6.926;2024-03-08T02:52:35;9.05;;;4.30;;
46835;SDS011;32573;51.290;6.926;2024-03-08T02:55:04;7.18;;;3.47;;
46835;SDS011;32573;51.290;6.926;2024-03-08T02:57:34;9.15;;;4.03;;
46835;SDS011;32573;51.290;6.926;2024-03-08T03:00:03;7.72;;;3.92;;
46835;SDS011;32573;51.290;6.926;2024-03-08T03:02:31;7.88;;;3.78;;
46835;SDS011;32573;51.290;6.926;2024-03-08T03:05:01;8.32;;;3.97;;
46835;SDS011;32573;51.290;6.926;2024-03-08T03:07:32;7.85;;;3.80;;
46835;SDS011;32573;51.290;6.926;2024-03-08T03:10:01;8.15;;;4.05;;
46835;SDS011;32573;51.290;6.926;2024-03-08T03:12:30;7.95;;;4.03;;
46835;SDS011;32573;51.290;6.926;2024-03-08T03:15:02;8.10;;;3.85;;
46835;SDS011;32573;51.290;6.926;2024-03-08T03:17:31;7.53;;;3.88;;
46835;SDS011;32573;51.290;6.926;2024-03-08T03:19:59;7.35;;;4.10;;
46835;SDS011;32573;51.290;6.926;2024-03-08T03:22:31;10.82;;;4.78;;
46835;SDS011;32573;51.290;6.926;2024-03-08T03:25:02;7.75;;;3.85;;
46835;SDS011;32573;51.290;6.926;2024-03-08T03:27:33;7.38;;;3.70;;
46835;SDS011;32573;51.290;6.926;2024-03-08T03:30:04;7.05;;;3.88;;
46835;SDS011;32573;51.290;6.926;2024-03-08T03:32:48;8.85;;;4.38;;
46835;SDS011;32573;51.290;6.926;2024-03-08T03:35:18;6.57;;;3.88;;
46835;SDS011;32573;51.290;6.926;2024-03-08T03:37:48;8.38;;;3.80;;
46835;SDS011;32573;51.290;6.926;2024-03-08T03:40:28;7.53;;;3.97;;
46835;SDS011;32573;51.290;6.926;2024-03-08T03:42:58;9.02;;;4.15;;
46835;SDS011;32573;51.290;6.926;2024-03-08T03:45:28;7.05;;;3.80;;
46835;SDS011;32573;51.290;6.926;2024-03-08T03:47:56;8.40;;;3.63;;
46835;SDS011;32573;51.290;6.926;2024-03-08T03:50:27;8.88;;;4.70;;
46835;SDS011;32573;51.290;6.926;2024-03-08T03:52:56;7.63;;;3.88;;
46835;SDS011;32573;51.290;6.926;2024-03-08T03:55:24;8.88;;;4.38;;
46835;SDS011;32573;51.290;6.926;2024-03-08T03:57:54;7.55;;;4.03;;
46835;SDS011;32573;51.290;6.926;2024-03-08T04:00:22;7.15;;;4.05;;
46835;SDS011;32573;51.290;6.926;2024-03-08T04:02:52;9.38;;;4.15;;
46835;SDS011;32573;51.290;6.926;2024-03-08T04:05:22;8.32;;;4.20;;
46835;SDS011;32573;51.290;6.926;2024-03-08T04:07:51;7.53;;;3.40;;
46835;SDS011;32573;51.290;6.926;2024-03-08T04:10:20;8.23;;;4.28;;
46835;SDS011;32573;51.290;6.926;2024-03-08T04:12:48;8.80;;;4.15;;
46835;SDS011;32573;51.290;6.926;2024-03-08T04:15:20;8.65;;;3.75;;
46835;SDS011;32573;51.290;6.926;2024-03-08T04:17:48;8.57;;;3.58;;
46835;SDS011;32573;51.290;6.926;2024-03-08T04:20:18;7.25;;;3.92;;
46835;SDS011;32573;51.290;6.926;2024-03-08T04:22:46;8.63;;;4.38;;
46835;SDS011;32573;51.290;6.926;2024-03-08T04:25:16;7.57;;;3.67;;
46835;SDS011;32573;51.290;6.926;2024-03-08T04:27:45;7.95;;;3.83;;
46835;SDS011;32573;51.290;6.926;2024-03-08T04:30:13;8.52;;;4.10;;
46835;SDS011;32573;51.290;6.926;2024-03-08T04:32:42;7.53;;;4.18;;
46835;SDS011;32573;51.290;6.926;2024-03-08T04:35:10;7.43;;;3.92;;
46835;SDS011;32573;51.290;6.926;2024-03-08T04:37:41;7.90;;;3.92;;
46835;SDS011;32573;51.290;6.926;2024-03-08T04:40:10;9.15;;;4.03;;
46835;SDS011;32573;51.290;6.926;2024-03-08T04:42:38;8.73;;;3.70;;
46835;SDS011;32573;51.290;6.926;2024-03-08T04:45:08;8.60;;;4.35;;
46835;SDS011;32573;51.290;6.926;2024-03-08T04:47:38;6.65;;;3.67;;
46835;SDS011;32573;51.290;6.926;2024-03-08T04:50:06;8.00;;;4.18;;
46835;SDS011;32573;51.290;6.926;2024-03-08T04:52:36;8.32;;;4.30;;
46835;SDS011;32573;51.290;6.926;2024-03-08T04:55:06;7.07;;;3.60;;
46835;SDS011;32573;51.290;6.926;2024-03-08T04:57:35;9.20;;;4.53;;
46835;SDS011;32573;51.290;6.926;2024-03-08T05:00:04;9.73;;;4.05;;
46835;SDS011;32573;51.290;6.926;2024-03-08T05:05:06;9.18;;;4.43;;
46835;SDS011;32573;51.290;6.926;2024-03-08T05:07:36;7.65;;;3.95;;
46835;SDS011;32573;51.290;6.926;2024-03-08T05:10:04;8.32;;;4.38;;
46835;SDS011;32573;51.290;6.926;2024-03-08T05:12:36;9.88;;;4.55;;
46835;SDS011;32573;51.290;6.926;2024-03-08T05:15:05;8.68;;;4.05;;
46835;SDS011;32573;51.290;6.926;2024-03-08T05:17:35;9.90;;;4.18;;
46835;SDS011;32573;51.290;6.926;2024-03-08T05:20:04;8.02;;;4.10;;
46835;SDS011;32573;51.290;6.926;2024-03-08T05:22:35;9.10;;;4.30;;
46835;SDS011;32573;51.290;6.926;2024-03-08T05:25:03;8.50;;;4.60;;
46835;SDS011;32573;51.290;6.926;2024-03-08T05:27:35;7.75;;;4.22;;
46835;SDS011;32573;51.290;6.926;2024-03-08T05:30:04;10.73;;;4.40;;
46835;SDS011;32573;51.290;6.926;2024-03-08T05:32:33;9.88;;;4.82;;
46835;SDS011;32573;51.290;6.926;2024-03-08T05:35:02;8.98;;;4.72;;
46835;SDS011;32573;51.290;6.926;2024-03-08T05:37:34;9.00;;;4.38;;
46835;SDS011;32573;51.290;6.926;2024-03-08T05:40:02;7.75;;;4.22;;
46835;SDS011;32573;51.290;6.926;2024-03-08T05:42:43;9.75;;;4.45;;
46835;SDS011;32573;51.290;6.926;2024-03-08T05:45:12;8.75;;;4.68;;
46835;SDS011;32573;51.290;6.926;2024-03-08T05:47:41;10.13;;;4.25;;
46835;SDS011;32573;51.290;6.926;2024-03-08T05:50:10;8.98;;;4.47;;
46835;SDS011;32573;51.290;6.926;2024-03-08T05:52:38;10.00;;;4.88;;
46835;SDS011;32573;51.290;6.926;2024-03-08T05:55:07;10.15;;;4.45;;
46835;SDS011;32573;51.290;6.926;2024-03-08T05:57:37;7.63;;;4.43;;
46835;SDS011;32573;51.290;6.926;2024-03-08T06:00:08;10.70;;;4.60;;
46835;SDS011;32573;51.290;6.926;2024-03-08T06:02:39;9.75;;;4.43;;
46835;SDS011;32573;51.290;6.926;2024-03-08T06:05:09;9.10;;;4.55;;
46835;SDS011;32573;51.290;6.926;2024-03-08T06:07:37;8.30;;;4.38;;
46835;SDS011;32573;51.290;6.926;2024-03-08T06:10:08;9.00;;;4.40;;
46835;SDS011;32573;51.290;6.926;2024-03-08T06:12:39;9.30;;;4.57;;
46835;SDS011;32573;51.290;6.926;2024-03-08T06:15:10;9.90;;;4.55;;
46835;SDS011;32573;51.290;6.926;2024-03-08T06:17:41;8.50;;;4.30;;
46835;SDS011;32573;51.290;6.926;2024-03-08T06:20:11;9.25;;;4.80;;
46835;SDS011;32573;51.290;6.926;2024-03-08T06:22:40;9.57;;;4.45;;
46835;SDS011;32573;51.290;6.926;2024-03-08T06:25:08;8.02;;;3.92;;
46835;SDS011;32573;51.290;6.926;2024-03-08T06:27:38;8.15;;;4.50;;
46835;SDS011;32573;51.290;6.926;2024-03-08T06:30:07;9.82;;;4.88;;
46835;SDS011;32573;51.290;6.926;2024-03-08T06:32:38;9.15;;;4.43;;
46835;SDS011;32573;51.290;6.926;2024-03-08T06:35:07;9.82;;;4.65;;
46835;SDS011;32573;51.290;6.926;2024-03-08T06:37:37;8.20;;;4.03;;
46835;SDS011;32573;51.290;6.926;2024-03-08T06:40:06;10.80;;;4.85;;
46835;SDS011;32573;51.290;6.926;2024-03-08T06:42:39;7.97;;;4.30;;
46835;SDS011;32573;51.290;6.926;2024-03-08T06:45:08;9.32;;;4.75;;
46835;SDS011;32573;51.290;6.926;2024-03-08T06:47:38;9.73;;;4.18;;
46835;SDS011;32573;51.290;6.926;2024-03-08T06:50:09;9.48;;;4.88;;
46835;SDS011;32573;51.290;6.926;2024-03-08T06:52:38;9.27;;;4.50;;
46835;SDS011;32573;51.290;6.926;2024-03-08T06:55:07;8.77;;;4.18;;
46835;SDS011;32573;51.290;6.926;2024-03-08T06:57:38;8.57;;;4.40;;
46835;SDS011;32573;51.290;6.926;2024-03-08T07:00:07;9.27;;;4.18;;
46835;SDS011;32573;51.290;6.926;2024-03-08T07:02:41;9.13;;;4.15;;
46835;SDS011;32573;51.290;6.926;2024-03-08T07:05:12;8.63;;;4.22;;
46835;SDS011;32573;51.290;6.926;2024-03-08T07:07:40;9.00;;;4.13;;
46835;SDS011;32573;51.290;6.926;2024-03-08T07:10:09;8.48;;;3.88;;
46835;SDS011;32573;51.290;6.926;2024-03-08T07:12:38;8.68;;;4.13;;
46835;SDS011;32573;51.290;6.926;2024-03-08T07:15:07;9.35;;;4.40;;
46835;SDS011;32573;51.290;6.926;2024-03-08T07:17:41;10.98;;;5.28;;
46835;SDS011;32573;51.290;6.926;2024-03-08T07:20:11;9.88;;;4.65;;
46835;SDS011;32573;51.290;6.926;2024-03-08T07:22:41;9.00;;;4.40;;
46835;SDS011;32573;51.290;6.926;2024-03-08T07:25:13;10.80;;;4.72;;
46835;SDS011;32573;51.290;6.926;2024-03-08T07:27:48;8.75;;;3.85;;
46835;SDS011;32573;51.290;6.926;2024-03-08T07:30:17;8.15;;;4.18;;
46835;SDS011;32573;51.290;6.926;2024-03-08T07:33:00;10.95;;;5.00;;
46835;SDS011;32573;51.290;6.926;2024-03-08T07:35:29;8.73;;;4.38;;
46835;SDS011;32573;51.290;6.926;2024-03-08T07:37:58;7.70;;;3.95;;
46835;SDS011;32573;51.290;6.926;2024-03-08T07:40:27;12.00;;;6.15;;
46835;SDS011;32573;51.290;6.926;2024-03-08T07:42:55;10.55;;;5.50;;
46835;SDS011;32573;51.290;6.926;2024-03-08T07:45:25;10.27;;;5.13;;
46835;SDS011;32573;51.290;6.926;2024-03-08T07:47:53;9.45;;;4.78;;
46835;SDS011;32573;51.290;6.926;2024-03-08T07:50:24;9.85;;;4.80;;
46835;SDS011;32573;51.290;6.926;2024-03-08T07:52:53;11.00;;;5.43;;
46835;SDS011;32573;51.290;6.926;2024-03-08T07:55:22;10.65;;;5.28;;
46835;SDS011;32573;51.290;6.926;2024-03-08T07:57:51;10.18;;;4.60;;
46835;SDS011;32573;51.290;6.926;2024-03-08T08:00:19;9.55;;;4.32;;
46835;SDS011;32573;51.290;6.926;2024-03-08T08:02:48;8.23;;;4.47;;
46835;SDS011;32573;51.290;6.926;2024-03-08T08:05:17;8.73;;;4.30;;
46835;SDS011;32573;51.290;6.926;2024-03-08T08:07:47;8.60;;;5.15;;
46835;SDS011;32573;51.290;6.926;2024-03-08T08:10:18;10.43;;;5.00;;
46835;SDS011;32573;51.290;6.926;2024-03-08T08:12:49;8.73;;;4.28;;
46835;SDS011;32573;51.290;6.926;2024-03-08T08:15:18;9.55;;;4.55;;
46835;SDS011;32573;51.290;6.926;2024-03-08T08:17:46;10.38;;;4.93;;
46835;SDS011;32573;51.290;6.926;2024-03-08T08:20:15;8.90;;;4.68;;
46835;SDS011;32573;51.290;6.926;2024-03-08T08:22:48;8.77;;;4.32;;
46835;SDS011;32573;51.290;6.926;2024-03-08T08:25:17;8.75;;;4.53;;
46835;SDS011;32573;51.290;6.926;2024-03-08T08:27:47;8.98;;;4.13;;
46835;SDS011;32573;51.290;6.926;2024-03-08T08:30:15;9.85;;;4.53;;
46835;SDS011;32573;51.290;6.926;2024-03-08T08:32:45;8.30;;;4.05;;
46835;SDS011;32573;51.290;6.926;2024-03-08T08:35:15;8.85;;;4.60;;
46835;SDS011;32573;51.290;6.926;2024-03-08T08:37:45;7.38;;;3.92;;
46835;SDS011;32573;51.290;6.926;2024-03-08T08:40:16;10.10;;;4.47;;
46835;SDS011;32573;51.290;6.926;2024-03-08T08:42:46;8.38;;;4.43;;
46835;SDS011;32573;51.290;6.926;2024-03-08T08:45:16;9.65;;;4.40;;
46835;SDS011;32573;51.290;6.926;2024-03-08T08:47:51;9.80;;;4.78;;
46835;SDS011;32573;51.290;6.926;2024-03-08T08:50:22;10.45;;;4.82;;
46835;SDS011;32573;51.290;6.926;2024-03-08T08:52:51;10.48;;;5.15;;
46835;SDS011;32573;51.290;6.926;2024-03-08T08:55:21;13.18;;;5.97;;
46835;SDS011;32573;51.290;6.926;2024-03-08T08:57:53;10.10;;;4.65;;
46835;SDS011;32573;51.290;6.926;2024-03-08T09:00:23;9.27;;;4.57;;
46835;SDS011;32573;51.290;6.926;2024-03-08T09:02:54;10.73;;;5.22;;
46835;SDS011;32573;51.290;6.926;2024-03-08T09:05:25;9.77;;;4.50;;
46835;SDS011;32573;51.290;6.926;2024-03-08T09:07:53;9.38;;;4.65;;
46835;SDS011;32573;51.290;6.926;2024-03-08T09:10:24;9.50;;;4.80;;
46835;SDS011;32573;51.290;6.926;2024-03-08T09:12:56;8.93;;;4.45;;
46835;SDS011;32573;51.290;6.926;2024-03-08T09:15:27;11.55;;;4.93;;
46835;SDS011;32573;51.290;6.926;2024-03-08T09:17:56;9.50;;;5.05;;
46835;SDS011;32573;51.290;6.926;2024-03-08T09:20:26;9.73;;;4.90;;
46835;SDS011;32573;51.290;6.926;2024-03-08T09:22:55;7.95;;;4.38;;
46835;SDS011;32573;51.290;6.926;2024-03-08T09:25:25;8.27;;;4.43;;
46835;SDS011;32573;51.290;6.926;2024-03-08T09:27:53;11.55;;;5.30;;
46835;SDS011;32573;51.290;6.926;2024-03-08T09:30:22;11.27;;;5.88;;
46835;SDS011;32573;51.290;6.926;2024-03-08T09:32:50;9.85;;;4.88;;
46835;SDS011;32573;51.290;6.926;2024-03-08T09:35:19;9.52;;;4.53;;
46835;SDS011;32573;51.290;6.926;2024-03-08T09:37:48;9.82;;;4.95;;
46835;SDS011;32573;51.290;6.926;2024-03-08T09:40:18;10.10;;;5.35;;
46835;SDS011;32573;51.290;6.926;2024-03-08T09:42:49;9.25;;;4.97;;
46835;SDS011;32573;51.290;6.926;2024-03-08T09:45:17;9.35;;;4.93;;
46835;SDS011;32573;51.290;6.926;2024-03-08T09:47:49;11.10;;;6.10;;
46835;SDS011;32573;51.290;6.926;2024-03-08T09:50:18;9.02;;;4.72;;
46835;SDS011;32573;51.290;6.926;2024-03-08T09:52:47;9.63;;;4.82;;
46835;SDS011;32573;51.290;6.926;2024-03-08T09:55:17;12.13;;;6.45;;
46835;SDS011;32573;51.290;6.926;2024-03-08T09:57:51;10.57;;;4.82;;
46835;SDS011;32573;51.290;6.926;2024-03-08T10:00:38;9.88;;;4.40;;
46835;SDS011;32573;51.290;6.926;2024-03-08T10:03:07;9.63;;;4.57;;
46835;SDS011;32573;51.290;6.926;2024-03-08T10:05:41;9.25;;;4.57;;
46835;SDS011;32573;51.290;6.926;2024-03-08T10:08:11;11.55;;;6.32;;
46835;SDS011;32573;51.290;6.926;2024-03-08T10:10:40;11.75;;;5.50;;
46835;SDS011;32573;51.290;6.926;2024-03-08T10:13:11;9.45;;;4.70;;
46835;SDS011;32573;51.290;6.926;2024-03-08T10:15:41;8.77;;;4.75;;
46835;SDS011;32573;51.290;6.926;2024-03-08T10:18:10;8.18;;;4.03;;
46835;SDS011;32573;51.290;6.926;2024-03-08T10:20:39;10.80;;;5.63;;
46835;SDS011;32573;51.290;6.926;2024-03-08T10:23:08;9.38;;;4.50;;
46835;SDS011;32573;51.290;6.926;2024-03-08T10:25:38;9.80;;;4.70;;
46835;SDS011;32573;51.290;6.926;2024-03-08T10:28:07;8.55;;;4.40;;
46835;SDS011;32573;51.290;6.926;2024-03-08T10:30:37;8.18;;;4.30;;
46835;SDS011;32573;51.290;6.926;2024-03-08T10:33:06;8.85;;;4.28;;
46835;SDS011;32573;51.290;6.926;2024-03-08T10:35:36;7.22;;;4.05;;
46835;SDS011;32573;51.290;6.926;2024-03-08T10:38:05;7.60;;;4.07;;
46835;SDS011;32573;51.290;6.926;2024-03-08T10:40:41;7.82;;;3.88;;
46835;SDS011;32573;51.290;6.926;2024-03-08T10:43:15;8.52;;;4.32;;
46835;SDS011;32573;51.290;6.926;2024-03-08T10:45:59;7.47;;;3.40;;
46835;SDS011;32573;51.290;6.926;2024-03-08T10:48:36;9.82;;;4.70;;
46835;SDS011;32573;51.290;6.926;2024-03-08T10:51:11;9.95;;;5.10;;
46835;SDS011;32573;51.290;6.926;2024-03-08T10:53:40;9.98;;;5.70;;
46835;SDS011;32573;51.290;6.926;2024-03-08T10:56:09;10.07;;;4.90;;
46835;SDS011;32573;51.290;6.926;2024-03-08T10:58:38;6.78;;;3.90;;
46835;SDS011;32573;51.290;6.926;2024-03-08T11:01:09;8.60;;;4.40;;
46835;SDS011;32573;51.290;6.926;2024-03-08T11:03:45;7.32;;;4.03;;
46835;SDS011;32573;51.290;6.926;2024-03-08T11:06:21;10.57;;;5.20;;
46835;SDS011;32573;51.290;6.926;2024-03-08T11:08:51;8.43;;;4.45;;
46835;SDS011;32573;51.290;6.926;2024-03-08T11:11:26;8.32;;;4.15;;
46835;SDS011;32573;51.290;6.926;2024-03-08T11:14:02;8.52;;;4.57;;
46835;SDS011;32573;51.290;6.926;2024-03-08T11:16:39;7.53;;;4.15;;
46835;SDS011;32573;51.290;6.926;2024-03-08T11:21:59;10.80;;;5.45;;
46835;SDS011;32573;51.290;6.926;2024-03-08T11:24:39;8.10;;;4.30;;
46835;SDS011;32573;51.290;6.926;2024-03-08T11:27:09;7.60;;;3.97;;
46835;SDS011;32573;51.290;6.926;2024-03-08T11:29:39;8.20;;;3.85;;
46835;SDS011;32573;51.290;6.926;2024-03-08T11:32:09;8.30;;;4.53;;
46835;SDS011;32573;51.290;6.926;2024-03-08T11:34:39;7.32;;;4.07;;
46835;SDS011;32573;51.290;6.926;2024-03-08T11:37:13;10.85;;;5.13;;
46835;SDS011;32573;51.290;6.926;2024-03-08T11:39:49;9.90;;;5.40;;
46835;SDS011;32573;51.290;6.926;2024-03-08T11:42:18;8.18;;;4.25;;
46835;SDS011;32573;51.290;6.926;2024-03-08T11:44:50;8.88;;;4.70;;
46835;SDS011;32573;51.290;6.926;2024-03-08T11:47:21;8.07;;;4.35;;
46835;SDS011;32573;51.290;6.926;2024-03-08T11:49:50;7.32;;;4.07;;
46835;SDS011;32573;51.290;6.926;2024-03-08T11:52:20;7.50;;;4.38;;
46835;SDS011;32573;51.290;6.926;2024-03-08T11:54:52;10.50;;;4.50;;
46835;SDS011;32573;51.290;6.926;2024-03-08T11:57:25;11.10;;;5.28;;
46835;SDS011;32573;51.290;6.926;2024-03-08T11:59:55;8.82;;;4.40;;
46835;SDS011;32573;51.290;6.926;2024-03-08T12:02:26;6.68;;;3.50;;
46835;SDS011;32573;51.290;6.926;2024-03-08T12:04:58;6.57;;;3.55;;
46835;SDS011;32573;51.290;6.926;2024-03-08T12:07:30;8.75;;;4.57;;
46835;SDS011;32573;51.290;6.926;2024-03-08T12:10:15;7.32;;;3.92;;
46835;SDS011;32573;51.290;6.926;2024-03-08T12:12:45;8.88;;;4.03;;
46835;SDS011;32573;51.290;6.926;2024-03-08T12:15:15;7.30;;;3.92;;
46835;SDS011;32573;51.290;6.926;2024-03-08T12:17:47;7.75;;;3.83;;
46835;SDS011;32573;51.290;6.926;2024-03-08T12:20:18;8.18;;;4.57;;
46835;SDS011;32573;51.290;6.926;2024-03-08T12:22:50;9.13;;;4.88;;
46835;SDS011;32573;51.290;6.926;2024-03-08T12:25:20;8.98;;;4.20;;
46835;SDS011;32573;51.290;6.926;2024-03-08T12:27:49;10.13;;;5.07;;
46835;SDS011;32573;51.290;6.926;2024-03-08T12:30:20;9.82;;;4.82;;
46835;SDS011;32573;51.290;6.926;2024-03-08T12:32:53;8.32;;;4.75;;
46835;SDS011;32573;51.290;6.926;2024-03-08T12:35:26;9.57;;;4.53;;
46835;SDS011;32573;51.290;6.926;2024-03-08T12:37:56;7.82;;;3.67;;
46835;SDS011;32573;51.290;6.926;2024-03-08T12:40:26;8.30;;;4.28;;
46835;SDS011;32573;51.290;6.926;2024-03-08T12:42:57;7.72;;;4.40;;
46835;SDS011;32573;51.290;6.926;2024-03-08T12:45:30;8.70;;;4.22;;
46835;SDS011;32573;51.290;6.926;2024-03-08T12:48:01;8.70;;;4.95;;
46835;SDS011;32573;51.290;6.926;2024-03-08T12:50:31;8.38;;;4.45;;
46835;SDS011;32573;51.290;6.926;2024-03-08T12:53:07;8.27;;;4.47;;
46835;SDS011;32573;51.290;6.926;2024-03-08T12:55:37;9.07;;;4.70;;
46835;SDS011;32573;51.290;6.926;2024-03-08T12:58:06;8.18;;;4.20;;
46835;SDS011;32573;51.290;6.926;2024-03-08T13:00:35;7.53;;;3.83;;
46835;SDS011;32573;51.290;6.926;2024-03-08T13:03:06;8.30;;;4.68;;
46835;SDS011;32573;51.290;6.926;2024-03-08T13:05:41;7.57;;;4.07;;
46835;SDS011;32573;51.290;6.926;2024-03-08T13:08:11;7.47;;;4.30;;
46835;SDS011;32573;51.290;6.926;2024-03-08T13:10:40;6.95;;;3.70;;
46835;SDS011;32573;51.290;6.926;2024-03-08T13:13:11;8.25;;;3.85;;
46835;SDS011;32573;51.290;6.926;2024-03-08T13:15:46;8.07;;;4.28;;
46835;SDS011;32573;51.290;6.926;2024-03-08T13:18:18;7.55;;;3.90;;
46835;SDS011;32573;51.290;6.926;2024-03-08T13:20:54;7.03;;;3.50;;
46835;SDS011;32573;51.290;6.926;2024-03-08T13:23:24;5.65;;;3.08;;
46835;SDS011;32573;51.290;6.926;2024-03-08T13:25:54;8.77;;;4.13;;
46835;SDS011;32573;51.290;6.926;2024-03-08T13:28:24;5.57;;;3.05;;
46835;SDS011;32573;51.290;6.926;2024-03-08T13:30:58;6.75;;;3.63;;
46835;SDS011;32573;51.290;6.926;2024-03-08T13:33:32;6.43;;;3.20;;
46835;SDS011;32573;51.290;6.926;2024-03-08T13:36:07;5.45;;;2.90;;
46835;SDS011;32573;51.290;6.926;2024-03-08T13:38:42;6.63;;;3.08;;
46835;SDS011;32573;51.290;6.926;2024-03-08T13:41:13;7.10;;;3.35;;
46835;SDS011;32573;51.290;6.926;2024-03-08T13:43:45;6.82;;;3.28;;
46835;SDS011;32573;51.290;6.926;2024-03-08T13:46:19;6.60;;;3.60;;
46835;SDS011;32573;51.290;6.926;2024-03-08T13:48:50;6.05;;;3.05;;
46835;SDS011;32573;51.290;6.926;2024-03-08T13:51:28;6.63;;;3.33;;
46835;SDS011;32573;51.290;6.926;2024-03-08T13:54:01;6.07;;;3.38;;
46835;SDS011;32573;51.290;6.926;2024-03-08T13:56:33;6.45;;;3.70;;
46835;SDS011;32573;51.290;6.926;2024-03-08T13:59:08;6.00;;;2.92;;
46835;SDS011;32573;51.290;6.926;2024-03-08T14:01:46;5.50;;;2.88;;
46835;SDS011;32573;51.290;6.926;2024-03-08T14:04:18;8.48;;;3.90;;
46835;SDS011;32573;51.290;6.926;2024-03-08T14:06:47;4.95;;;2.63;;
46835;SDS011;32573;51.290;6.926;2024-03-08T14:09:16;6.22;;;3.33;;
46835;SDS011;32573;51.290;6.926;2024-03-08T14:11:44;6.38;;;3.00;;
46835;SDS011;32573;51.290;6.926;2024-03-08T14:14:17;9.70;;;4.30;;
46835;SDS011;32573;51.290;6.926;2024-03-08T14:16:51;5.50;;;2.92;;
46835;SDS011;32573;51.290;6.926;2024-03-08T14:19:22;7.15;;;3.38;;
46835;SDS011;32573;51.290;6.926;2024-03-08T14:21:52;5.72;;;3.30;;
46835;SDS011;32573;51.290;6.926;2024-03-08T14:24:22;4.93;;;2.70;;
46835;SDS011;32573;51.290;6.926;2024-03-08T14:26:51;6.85;;;3.67;;
46835;SDS011;32573;51.290;6.926;2024-03-08T14:29:21;6.28;;;3.28;;
46835;SDS011;32573;51.290;6.926;2024-03-08T14:31:56;6.78;;;3.55;;
46835;SDS011;32573;51.290;6.926;2024-03-08T14:34:28;6.10;;;3.22;;
46835;SDS011;32573;51.290;6.926;2024-03-08T14:37:00;7.18;;;3.50;;
46835;SDS011;32573;51.290;6.926;2024-03-08T14:39:43;6.50;;;3.20;;
46835;SDS011;32573;51.290;6.926;2024-03-08T14:42:23;6.72;;;3.33;;
46835;SDS011;32573;51.290;6.926;2024-03-08T14:44:54;6.00;;;3.15;;
46835;SDS011;32573;51.290;6.926;2024-03-08T14:47:24;7.82;;;4.10;;
46835;SDS011;32573;51.290;6.926;2024-03-08T14:49:57;6.88;;;3.50;;
46835;SDS011;32573;51.290;6.926;2024-03-08T14:52:27;6.00;;;3.13;;
46835;SDS011;32573;51.290;6.926;2024-03-08T14:54:57;6.13;;;3.17;;
46835;SDS011;32573;51.290;6.926;2024-03-08T14:57:30;7.45;;;3.70;;
46835;SDS011;32573;51.290;6.926;2024-03-08T15:00:00;6.70;;;3.20;;
46835;SDS011;32573;51.290;6.926;2024-03-08T15:02:34;5.53;;;3.00;;
46835;SDS011;32573;51.290;6.926;2024-03-08T15:05:06;6.13;;;3.20;;
46835;SDS011;32573;51.290;6.926;2024-03-08T15:07:42;6.80;;;3.15;;
46835;SDS011;32573;51.290;6.926;2024-03-08T15:10:12;7.53;;;3.75;;